Red Cliff Indian Reservation, Wisconsin
Current Conditions -  °F | °C
As of 12:25 PM on Sunday 25 Jan 2015 (Local Time) from KASX Reporting Station
Few Clouds Few Clouds  
Wind Chill:   Ceiling: Unl
Heat Index: 20°   Visibility: 10mi
Dew Point:   Wind: 10mph
Humidity: 62%   Direction: 60°ENE
Pressure: 30.08"   Gusts: NA
Location:  46.543°N, 90.8706°W
Report Text: KASX 251825Z AUTO 06009KT 10SM FEW027 M07/M13 A3008 RMK AO2 T10671128
Loading
Personal Weather Stations






























Interactive Weather Map New forecast layout! Learn more

10-Day Weather Forecast

Advertisements
Track Severe Weather on mobile